sensor_id;sensor_type;location;lat;lon;timestamp;pressure;altitude;pressure_sealevel;temperature;humidity
9261;BME280;4667;42.726;23.252;2023-10-13T00:00:26;95699.50;;;12.08;60.85
9261;BME280;4667;42.726;23.252;2023-10-13T00:02:56;95732.34;;;12.12;61.31
9261;BME280;4667;42.726;23.252;2023-10-13T00:05:26;95719.97;;;12.17;61.20
9261;BME280;4667;42.726;23.252;2023-10-13T00:07:53;95703.78;;;11.92;61.31
9261;BME280;4667;42.726;23.252;2023-10-13T00:10:20;95652.38;;;11.66;61.07
9261;BME280;4667;42.726;23.252;2023-10-13T00:12:47;95729.34;;;12.03;61.33
9261;BME280;4667;42.726;23.252;2023-10-13T00:15:18;95675.00;;;11.57;61.96
9261;BME280;4667;42.726;23.252;2023-10-13T00:17:46;95723.50;;;11.84;62.02
9261;BME280;4667;42.726;23.252;2023-10-13T00:20:13;95717.44;;;11.84;61.80
9261;BME280;4667;42.726;23.252;2023-10-13T00:23:01;95714.88;;;11.72;62.22
9261;BME280;4667;42.726;23.252;2023-10-13T00:25:28;95715.66;;;11.73;62.50
9261;BME280;4667;42.726;23.252;2023-10-13T00:28:05;95699.66;;;11.62;62.38
9261;BME280;4667;42.726;23.252;2023-10-13T00:30:35;95718.53;;;11.71;62.52
9261;BME280;4667;42.726;23.252;2023-10-13T00:33:03;95724.47;;;11.78;62.24
9261;BME280;4667;42.726;23.252;2023-10-13T00:35:30;95721.97;;;11.55;62.88
9261;BME280;4667;42.726;23.252;2023-10-13T00:38:02;95681.00;;;11.35;62.46
9261;BME280;4667;42.726;23.252;2023-10-13T00:40:38;95686.03;;;11.20;63.22
9261;BME280;4667;42.726;23.252;2023-10-13T00:43:09;95696.28;;;11.33;63.06
9261;BME280;4667;42.726;23.252;2023-10-13T00:45:56;95719.03;;;11.34;63.29
9261;BME280;4667;42.726;23.252;2023-10-13T00:48:24;95699.97;;;11.32;62.70
9261;BME280;4667;42.726;23.252;2023-10-13T00:50:58;95728.78;;;11.51;62.64
9261;BME280;4667;42.726;23.252;2023-10-13T00:53:28;95715.81;;;11.32;63.18
9261;BME280;4667;42.726;23.252;2023-10-13T00:55:55;95656.28;;;10.91;62.82
9261;BME280;4667;42.726;23.252;2023-10-13T00:58:23;95728.69;;;11.45;62.65
9261;BME280;4667;42.726;23.252;2023-10-13T01:00:50;95736.47;;;11.35;63.00
9261;BME280;4667;42.726;23.252;2023-10-13T01:03:23;95695.25;;;11.17;62.60
9261;BME280;4667;42.726;23.252;2023-10-13T01:05:53;95676.53;;;11.02;62.82
9261;BME280;4667;42.726;23.252;2023-10-13T01:08:36;95701.97;;;11.08;63.24
9261;BME280;4667;42.726;23.252;2023-10-13T01:11:03;95656.75;;;10.88;62.83
9261;BME280;4667;42.726;23.252;2023-10-13T01:13:32;95725.25;;;11.28;63.13
9261;BME280;4667;42.726;23.252;2023-10-13T01:16:01;95702.94;;;11.19;62.83
9261;BME280;4667;42.726;23.252;2023-10-13T01:18:34;95729.25;;;11.31;63.13
9261;BME280;4667;42.726;23.252;2023-10-13T01:21:10;95687.69;;;10.92;63.36
9261;BME280;4667;42.726;23.252;2023-10-13T01:23:42;95727.31;;;11.09;63.87
9261;BME280;4667;42.726;23.252;2023-10-13T01:26:08;95730.13;;;11.19;63.37
9261;BME280;4667;42.726;23.252;2023-10-13T01:28:38;95714.19;;;11.14;63.21
9261;BME280;4667;42.726;23.252;2023-10-13T01:31:10;95742.19;;;11.15;63.58
9261;BME280;4667;42.726;23.252;2023-10-13T01:33:50;95735.81;;;11.11;63.72
9261;BME280;4667;42.726;23.252;2023-10-13T01:36:19;95738.63;;;10.93;64.34
9261;BME280;4667;42.726;23.252;2023-10-13T01:38:47;95741.56;;;11.08;63.86
9261;BME280;4667;42.726;23.252;2023-10-13T01:41:13;95701.47;;;10.66;63.95
9261;BME280;4667;42.726;23.252;2023-10-13T01:43:39;95747.09;;;10.95;64.06
9261;BME280;4667;42.726;23.252;2023-10-13T01:46:05;95716.38;;;10.72;64.24
9261;BME280;4667;42.726;23.252;2023-10-13T01:48:34;95738.78;;;10.86;64.46
9261;BME280;4667;42.726;23.252;2023-10-13T01:51:04;95657.91;;;10.35;64.05
9261;BME280;4667;42.726;23.252;2023-10-13T01:53:38;95738.28;;;11.01;63.35
9261;BME280;4667;42.726;23.252;2023-10-13T01:56:07;95707.94;;;10.87;63.21
9261;BME280;4667;42.726;23.252;2023-10-13T01:58:37;95741.31;;;11.10;63.18
9261;BME280;4667;42.726;23.252;2023-10-13T02:01:06;95735.63;;;11.01;63.25
9261;BME280;4667;42.726;23.252;2023-10-13T02:03:33;95732.31;;;10.94;63.60
9261;BME280;4667;42.726;23.252;2023-10-13T02:06:01;95697.72;;;10.62;63.55
9261;BME280;4667;42.726;23.252;2023-10-13T02:08:30;95727.84;;;10.94;63.49
9261;BME280;4667;42.726;23.252;2023-10-13T02:10:57;95732.63;;;10.81;63.56
9261;BME280;4667;42.726;23.252;2023-10-13T02:13:26;95731.06;;;10.68;64.23
9261;BME280;4667;42.726;23.252;2023-10-13T02:15:55;95467.88;;;9.22;63.86
9261;BME280;4667;42.726;23.252;2023-10-13T02:18:23;95700.34;;;10.62;64.11
9261;BME280;4667;42.726;23.252;2023-10-13T02:20:52;95676.19;;;10.53;64.05
9261;BME280;4667;42.726;23.252;2023-10-13T02:23:21;95661.81;;;10.32;64.35
9261;BME280;4667;42.726;23.252;2023-10-13T02:25:49;95727.44;;;10.57;64.68
9261;BME280;4667;42.726;23.252;2023-10-13T02:28:18;95612.97;;;9.89;64.70
9261;BME280;4667;42.726;23.252;2023-10-13T02:30:55;95723.63;;;10.65;64.32
9261;BME280;4667;42.726;23.252;2023-10-13T02:33:23;95728.25;;;10.75;64.35
9261;BME280;4667;42.726;23.252;2023-10-13T02:35:55;95630.25;;;10.09;64.42
9261;BME280;4667;42.726;23.252;2023-10-13T02:38:23;95712.41;;;10.58;64.64
9261;BME280;4667;42.726;23.252;2023-10-13T02:40:59;95733.00;;;10.73;64.68
9261;BME280;4667;42.726;23.252;2023-10-13T02:43:32;95699.50;;;10.45;64.55
9261;BME280;4667;42.726;23.252;2023-10-13T02:46:00;95737.47;;;10.72;64.45
9261;BME280;4667;42.726;23.252;2023-10-13T02:48:27;95739.47;;;10.53;65.05
9261;BME280;4667;42.726;23.252;2023-10-13T02:50:58;95738.44;;;10.54;65.18
9261;BME280;4667;42.726;23.252;2023-10-13T02:53:28;95670.56;;;9.98;65.32
9261;BME280;4667;42.726;23.252;2023-10-13T02:55:55;95737.19;;;10.57;64.89
9261;BME280;4667;42.726;23.252;2023-10-13T02:58:24;95672.19;;;9.99;65.44
9261;BME280;4667;42.726;23.252;2023-10-13T03:01:06;95735.19;;;10.35;65.73
9261;BME280;4667;42.726;23.252;2023-10-13T03:03:43;95736.31;;;10.28;65.58
9261;BME280;4667;42.726;23.252;2023-10-13T03:06:13;95745.38;;;10.32;65.84
9261;BME280;4667;42.726;23.252;2023-10-13T03:08:39;95758.06;;;10.47;65.51
9261;BME280;4667;42.726;23.252;2023-10-13T03:11:06;95724.84;;;10.22;65.70
9261;BME280;4667;42.726;23.252;2023-10-13T03:13:32;95753.38;;;10.37;65.83
9261;BME280;4667;42.726;23.252;2023-10-13T03:15:59;95750.78;;;10.25;66.01
9261;BME280;4667;42.726;23.252;2023-10-13T03:18:26;95748.25;;;10.30;66.17
9261;BME280;4667;42.726;23.252;2023-10-13T03:20:59;95751.44;;;10.32;65.86
9261;BME280;4667;42.726;23.252;2023-10-13T03:23:27;95755.09;;;10.43;65.70
9261;BME280;4667;42.726;23.252;2023-10-13T03:25:56;95745.72;;;10.35;65.96
9261;BME280;4667;42.726;23.252;2023-10-13T03:28:29;95747.66;;;10.28;66.12
9261;BME280;4667;42.726;23.252;2023-10-13T03:30:59;95752.72;;;10.30;66.35
9261;BME280;4667;42.726;23.252;2023-10-13T03:33:28;95664.78;;;9.84;65.98
9261;BME280;4667;42.726;23.252;2023-10-13T03:35:58;95666.50;;;9.78;66.27
9261;BME280;4667;42.726;23.252;2023-10-13T03:38:31;95670.94;;;9.89;65.50
9261;BME280;4667;42.726;23.252;2023-10-13T03:41:02;95612.59;;;9.57;65.67
9261;BME280;4667;42.726;23.252;2023-10-13T03:43:37;95726.69;;;10.33;65.88
9261;BME280;4667;42.726;23.252;2023-10-13T03:46:17;95607.66;;;9.61;65.76
9261;BME280;4667;42.726;23.252;2023-10-13T03:48:48;95724.63;;;10.35;66.02
9261;BME280;4667;42.726;23.252;2023-10-13T03:51:26;95715.22;;;10.39;65.83
9261;BME280;4667;42.726;23.252;2023-10-13T03:53:57;95578.00;;;9.54;65.71
9261;BME280;4667;42.726;23.252;2023-10-13T03:56:24;95688.44;;;10.19;65.99
9261;BME280;4667;42.726;23.252;2023-10-13T03:59:04;95660.47;;;10.06;65.61
9261;BME280;4667;42.726;23.252;2023-10-13T04:01:35;95664.91;;;10.18;65.38
9261;BME280;4667;42.726;23.252;2023-10-13T04:04:16;95494.56;;;9.02;65.54
9261;BME280;4667;42.726;23.252;2023-10-13T04:06:59;95648.59;;;9.92;65.65
9261;BME280;4667;42.726;23.252;2023-10-13T04:09:39;95680.09;;;9.99;65.96
9261;BME280;4667;42.726;23.252;2023-10-13T04:12:44;95666.69;;;10.00;65.40
9261;BME280;4667;42.726;23.252;2023-10-13T04:15:28;95728.88;;;10.36;65.58
9261;BME280;4667;42.726;23.252;2023-10-13T04:18:05;95623.56;;;9.66;65.51
9261;BME280;4667;42.726;23.252;2023-10-13T04:20:45;95724.88;;;10.34;65.84
9261;BME280;4667;42.726;23.252;2023-10-13T04:23:29;95736.56;;;10.26;65.82
9261;BME280;4667;42.726;23.252;2023-10-13T04:26:15;95734.72;;;10.27;65.89
9261;BME280;4667;42.726;23.252;2023-10-13T04:28:48;95665.13;;;9.64;65.78
9261;BME280;4667;42.726;23.252;2023-10-13T04:31:16;95740.69;;;10.10;66.12
9261;BME280;4667;42.726;23.252;2023-10-13T04:34:19;95737.59;;;10.13;66.40
9261;BME280;4667;42.726;23.252;2023-10-13T04:36:53;95749.16;;;10.12;66.02
9261;BME280;4667;42.726;23.252;2023-10-13T04:39:36;95718.47;;;9.71;66.40
9261;BME280;4667;42.726;23.252;2023-10-13T04:42:05;95741.59;;;9.93;66.55
9261;BME280;4667;42.726;23.252;2023-10-13T04:44:39;95762.47;;;10.06;66.15
9261;BME280;4667;42.726;23.252;2023-10-13T04:47:17;95767.84;;;9.99;66.61
9261;BME280;4667;42.726;23.252;2023-10-13T04:49:47;95760.53;;;9.89;66.43
9261;BME280;4667;42.726;23.252;2023-10-13T04:52:18;95767.63;;;9.89;66.71
9261;BME280;4667;42.726;23.252;2023-10-13T04:55:03;95748.97;;;9.79;66.17
9261;BME280;4667;42.726;23.252;2023-10-13T04:57:42;95767.16;;;9.80;66.70
9261;BME280;4667;42.726;23.252;2023-10-13T05:00:13;95756.38;;;9.70;66.91
9261;BME280;4667;42.726;23.252;2023-10-13T05:02:57;95774.38;;;9.85;66.55
9261;BME280;4667;42.726;23.252;2023-10-13T05:05:51;95783.19;;;9.90;66.68
9261;BME280;4667;42.726;23.252;2023-10-13T05:08:34;95778.16;;;9.89;66.32
9261;BME280;4667;42.726;23.252;2023-10-13T05:11:33;95780.69;;;9.96;66.36
9261;BME280;4667;42.726;23.252;2023-10-13T05:14:17;95791.56;;;9.99;66.31
9261;BME280;4667;42.726;23.252;2023-10-13T05:17:01;95777.13;;;9.90;65.88
9261;BME280;4667;42.726;23.252;2023-10-13T05:19:45;95784.47;;;10.00;65.75
9261;BME280;4667;42.726;23.252;2023-10-13T05:22:30;95800.25;;;10.23;65.20
9261;BME280;4667;42.726;23.252;2023-10-13T05:25:15;95788.47;;;10.14;65.18
9261;BME280;4667;42.726;23.252;2023-10-13T05:27:59;95672.59;;;9.44;65.15
9261;BME280;4667;42.726;23.252;2023-10-13T05:30:43;95790.69;;;10.29;65.15
9261;BME280;4667;42.726;23.252;2023-10-13T05:33:28;95801.31;;;10.46;64.48
9261;BME280;4667;42.726;23.252;2023-10-13T05:36:12;95806.75;;;10.67;64.13
9261;BME280;4667;42.726;23.252;2023-10-13T05:38:57;95815.34;;;10.75;64.05
9261;BME280;4667;42.726;23.252;2023-10-13T05:41:41;95790.03;;;10.62;63.93
9261;BME280;4667;42.726;23.252;2023-10-13T05:44:25;95813.84;;;10.79;64.18
9261;BME280;4667;42.726;23.252;2023-10-13T05:47:14;95816.06;;;10.99;63.74
9261;BME280;4667;42.726;23.252;2023-10-13T05:50:09;95813.47;;;11.15;63.33
9261;BME280;4667;42.726;23.252;2023-10-13T05:52:54;95767.75;;;10.98;63.27
9261;BME280;4667;42.726;23.252;2023-10-13T05:55:40;95809.47;;;11.41;62.61
9261;BME280;4667;42.726;23.252;2023-10-13T05:58:24;95819.97;;;11.53;62.66
9261;BME280;4667;42.726;23.252;2023-10-13T06:01:12;95813.19;;;11.74;62.28
9261;BME280;4667;42.726;23.252;2023-10-13T06:03:57;95816.44;;;11.81;61.92
9261;BME280;4667;42.726;23.252;2023-10-13T06:06:49;95817.22;;;11.93;61.59
9261;BME280;4667;42.726;23.252;2023-10-13T06:09:33;95774.16;;;11.81;61.27
9261;BME280;4667;42.726;23.252;2023-10-13T06:12:19;95805.19;;;12.19;60.92
9261;BME280;4667;42.726;23.252;2023-10-13T06:15:03;95806.19;;;12.35;60.31
9261;BME280;4667;42.726;23.252;2023-10-13T06:17:48;95825.53;;;12.58;59.87
9261;BME280;4667;42.726;23.252;2023-10-13T07:16:57;95831.59;;;14.90;55.13
9261;BME280;4667;42.726;23.252;2023-10-13T07:19:24;95650.41;;;14.67;52.81
9261;BME280;4667;42.726;23.252;2023-10-13T07:21:53;95788.38;;;16.42;51.02
9261;BME280;4667;42.726;23.252;2023-10-13T07:24:25;95814.72;;;17.29;48.60
9261;BME280;4667;42.726;23.252;2023-10-13T07:26:56;95700.53;;;17.41;46.76
9261;BME280;4667;42.726;23.252;2023-10-13T07:29:28;95819.44;;;18.98;44.48
9261;BME280;4667;42.726;23.252;2023-10-13T07:32:00;95791.19;;;19.53;42.93
9261;BME280;4667;42.726;23.252;2023-10-13T07:34:28;95803.50;;;20.38;41.30
9261;BME280;4667;42.726;23.252;2023-10-13T07:36:57;95806.84;;;20.90;39.66
9261;BME280;4667;42.726;23.252;2023-10-13T07:39:26;95677.69;;;20.61;38.97
9261;BME280;4667;42.726;23.252;2023-10-13T07:41:53;95692.19;;;21.46;37.33
9261;BME280;4667;42.726;23.252;2023-10-13T07:44:29;95789.63;;;22.76;36.23
9261;BME280;4667;42.726;23.252;2023-10-13T07:46:59;95787.25;;;23.14;34.33
9261;BME280;4667;42.726;23.252;2023-10-13T07:49:31;95734.88;;;23.29;33.83
9261;BME280;4667;42.726;23.252;2023-10-13T07:51:59;95597.81;;;22.89;32.94
9261;BME280;4667;42.726;23.252;2023-10-13T07:54:41;95790.38;;;24.46;32.19
9261;BME280;4667;42.726;23.252;2023-10-13T07:57:08;95796.16;;;24.74;31.09
9261;BME280;4667;42.726;23.252;2023-10-13T07:59:35;95754.81;;;24.91;31.18
9261;BME280;4667;42.726;23.252;2023-10-13T08:02:12;95692.69;;;24.49;30.65
9261;BME280;4667;42.726;23.252;2023-10-13T08:05:00;95744.34;;;24.60;31.24
9261;BME280;4667;42.726;23.252;2023-10-13T08:07:30;95712.50;;;24.06;31.31
9261;BME280;4667;42.726;23.252;2023-10-13T08:09:56;95783.06;;;24.55;31.31
9261;BME280;4667;42.726;23.252;2023-10-13T08:12:25;95783.03;;;24.64;31.33
9261;BME280;4667;42.726;23.252;2023-10-13T08:14:53;95776.50;;;24.74;31.21
9261;BME280;4667;42.726;23.252;2023-10-13T08:17:37;95776.81;;;25.10;30.82
9261;BME280;4667;42.726;23.252;2023-10-13T08:20:11;95785.47;;;25.25;30.37
9261;BME280;4667;42.726;23.252;2023-10-13T08:22:38;95730.88;;;24.60;30.66
9261;BME280;4667;42.726;23.252;2023-10-13T08:25:12;95794.06;;;25.18;30.22
9261;BME280;4667;42.726;23.252;2023-10-13T08:27:46;95756.69;;;24.70;31.65
9261;BME280;4667;42.726;23.252;2023-10-13T08:30:31;95783.34;;;25.09;30.90
9261;BME280;4667;42.726;23.252;2023-10-13T08:33:07;95776.53;;;25.03;30.79
9261;BME280;4667;42.726;23.252;2023-10-13T08:35:43;95775.91;;;24.59;30.77
9261;BME280;4667;42.726;23.252;2023-10-13T08:38:31;95658.03;;;23.75;31.27
9261;BME280;4667;42.726;23.252;2023-10-13T08:41:16;95780.41;;;24.85;31.08
9261;BME280;4667;42.726;23.252;2023-10-13T08:43:55;95636.78;;;23.91;30.93
9261;BME280;4667;42.726;23.252;2023-10-13T08:46:30;95760.34;;;24.65;30.74
9261;BME280;4667;42.726;23.252;2023-10-13T08:49:18;95783.28;;;24.42;31.08
9261;BME280;4667;42.726;23.252;2023-10-13T08:51:50;95775.38;;;24.28;31.67
9261;BME280;4667;42.726;23.252;2023-10-13T08:54:32;95789.97;;;23.57;32.42
9261;BME280;4667;42.726;23.252;2023-10-13T08:57:04;95737.56;;;23.38;33.89
9261;BME280;4667;42.726;23.252;2023-10-13T08:59:58;95767.00;;;24.12;32.37
9261;BME280;4667;42.726;23.252;2023-10-13T09:02:44;95562.06;;;22.89;32.41
9261;BME280;4667;42.726;23.252;2023-10-13T09:05:46;95703.31;;;23.90;32.07
9261;BME280;4667;42.726;23.252;2023-10-13T09:08:28;95727.88;;;24.06;31.75
9261;BME280;4667;42.726;23.252;2023-10-13T09:11:02;95766.03;;;24.72;31.49
9261;BME280;4667;42.726;23.252;2023-10-13T09:13:37;95586.72;;;24.19;30.90
9261;BME280;4667;42.726;23.252;2023-10-13T09:16:10;95706.97;;;25.09;29.84
9261;BME280;4667;42.726;23.252;2023-10-13T09:18:42;95666.38;;;24.46;29.86
9261;BME280;4667;42.726;23.252;2023-10-13T09:21:12;95706.06;;;24.96;29.74
9261;BME280;4667;42.726;23.252;2023-10-13T09:24:14;95708.47;;;25.60;29.23
9261;BME280;4667;42.726;23.252;2023-10-13T09:26:47;95735.94;;;26.62;28.41
9261;BME280;4667;42.726;23.252;2023-10-13T09:29:16;95746.16;;;27.30;27.43
9261;BME280;4667;42.726;23.252;2023-10-13T09:31:45;95754.44;;;27.61;26.49
9261;BME280;4667;42.726;23.252;2023-10-13T09:34:19;95734.81;;;28.36;25.97
9261;BME280;4667;42.726;23.252;2023-10-13T09:36:47;95685.72;;;28.57;25.39
9261;BME280;4667;42.726;23.252;2023-10-13T09:39:16;95727.78;;;29.14;24.04
9261;BME280;4667;42.726;23.252;2023-10-13T09:41:58;95657.66;;;29.20;24.30
9261;BME280;4667;42.726;23.252;2023-10-13T09:44:25;95723.06;;;29.85;23.98
9261;BME280;4667;42.726;23.252;2023-10-13T09:46:59;95722.56;;;29.25;23.27
9261;BME280;4667;42.726;23.252;2023-10-13T09:49:36;95525.41;;;28.31;24.03
9261;BME280;4667;42.726;23.252;2023-10-13T09:52:15;95717.66;;;29.89;22.59
9261;BME280;4667;42.726;23.252;2023-10-13T09:54:53;95710.50;;;30.19;22.78
9261;BME280;4667;42.726;23.252;2023-10-13T09:57:31;95580.16;;;29.88;22.13
9261;BME280;4667;42.726;23.252;2023-10-13T10:00:09;95707.00;;;30.88;21.64
9261;BME280;4667;42.726;23.252;2023-10-13T10:02:59;95531.41;;;30.78;20.64
9261;BME280;4667;42.726;23.252;2023-10-13T10:05:39;95664.78;;;31.95;19.13
9261;BME280;4667;42.726;23.252;2023-10-13T10:08:06;95670.38;;;31.42;19.71
9261;BME280;4667;42.726;23.252;2023-10-13T10:10:50;95647.19;;;32.33;19.29
9261;BME280;4667;42.726;23.252;2023-10-13T10:13:24;95698.81;;;33.00;19.09
9261;BME280;4667;42.726;23.252;2023-10-13T10:15:57;95691.13;;;33.13;19.08
9261;BME280;4667;42.726;23.252;2023-10-13T10:18:29;95690.09;;;32.84;18.25
9261;BME280;4667;42.726;23.252;2023-10-13T10:21:03;95682.19;;;33.27;18.09
9261;BME280;4667;42.726;23.252;2023-10-13T10:23:36;95614.34;;;33.47;17.70
9261;BME280;4667;42.726;23.252;2023-10-13T10:26:25;95678.59;;;34.03;17.07
9261;BME280;4667;42.726;23.252;2023-10-13T10:28:55;95673.56;;;34.30;16.63
9261;BME280;4667;42.726;23.252;2023-10-13T10:31:31;95659.09;;;35.08;16.15
9261;BME280;4667;42.726;23.252;2023-10-13T10:34:11;95669.28;;;34.79;15.40
9261;BME280;4667;42.726;23.252;2023-10-13T10:36:38;95670.06;;;34.79;15.11
9261;BME280;4667;42.726;23.252;2023-10-13T10:39:08;95679.06;;;34.37;15.61
9261;BME280;4667;42.726;23.252;2023-10-13T10:41:40;95668.88;;;34.84;15.58
9261;BME280;4667;42.726;23.252;2023-10-13T10:44:11;95644.66;;;34.57;15.59
9261;BME280;4667;42.726;23.252;2023-10-13T10:46:51;95662.22;;;34.28;16.07
9261;BME280;4667;42.726;23.252;2023-10-13T10:49:27;95652.44;;;34.20;16.33
9261;BME280;4667;42.726;23.252;2023-10-13T10:51:58;95661.81;;;34.29;16.30
9261;BME280;4667;42.726;23.252;2023-10-13T10:54:29;95657.16;;;34.55;15.25
9261;BME280;4667;42.726;23.252;2023-10-13T10:56:58;95652.47;;;34.59;15.44
9261;BME280;4667;42.726;23.252;2023-10-13T10:59:38;95659.50;;;34.53;16.06
9261;BME280;4667;42.726;23.252;2023-10-13T11:02:05;95639.16;;;34.72;15.59
9261;BME280;4667;42.726;23.252;2023-10-13T11:04:34;95629.34;;;34.74;15.28
9261;BME280;4667;42.726;23.252;2023-10-13T11:07:06;95646.97;;;34.98;15.58
9261;BME280;4667;42.726;23.252;2023-10-13T11:09:35;95643.47;;;34.62;15.12
9261;BME280;4667;42.726;23.252;2023-10-13T11:12:13;95645.78;;;34.85;15.29
9261;BME280;4667;42.726;23.252;2023-10-13T11:14:41;95636.34;;;35.14;14.42
9261;BME280;4667;42.726;23.252;2023-10-13T11:17:18;95626.03;;;35.54;14.68
9261;BME280;4667;42.726;23.252;2023-10-13T11:19:50;95637.81;;;35.37;14.62
9261;BME280;4667;42.726;23.252;2023-10-13T11:22:19;95635.75;;;35.73;14.12
9261;BME280;4667;42.726;23.252;2023-10-13T11:24:57;95637.25;;;35.78;14.54
9261;BME280;4667;42.726;23.252;2023-10-13T11:27:30;95629.72;;;36.52;14.19
9261;BME280;4667;42.726;23.252;2023-10-13T11:30:22;95622.00;;;36.81;13.06
9261;BME280;4667;42.726;23.252;2023-10-13T11:32:58;95594.53;;;36.36;13.36
9261;BME280;4667;42.726;23.252;2023-10-13T11:35:26;95601.78;;;36.08;13.70
9261;BME280;4667;42.726;23.252;2023-10-13T11:38:14;95610.13;;;35.90;13.76
9261;BME280;4667;42.726;23.252;2023-10-13T11:40:40;95619.63;;;35.79;13.69
9261;BME280;4667;42.726;23.252;2023-10-13T11:43:26;95615.06;;;36.17;13.68
9261;BME280;4667;42.726;23.252;2023-10-13T11:45:53;95613.28;;;36.48;13.38
9261;BME280;4667;42.726;23.252;2023-10-13T11:48:21;95601.91;;;36.50;13.16
9261;BME280;4667;42.726;23.252;2023-10-13T11:51:00;95607.16;;;36.26;13.48
9261;BME280;4667;42.726;23.252;2023-10-13T11:53:31;95611.50;;;36.68;12.78
9261;BME280;4667;42.726;23.252;2023-10-13T11:55:58;95600.19;;;37.01;12.59
9261;BME280;4667;42.726;23.252;2023-10-13T11:58:26;95606.56;;;36.94;12.45
9261;BME280;4667;42.726;23.252;2023-10-13T12:00:54;95595.91;;;37.64;12.05
9261;BME280;4667;42.726;23.252;2023-10-13T12:03:33;95594.69;;;37.01;12.72
9261;BME280;4667;42.726;23.252;2023-10-13T12:06:18;95585.88;;;36.34;13.14
9261;BME280;4667;42.726;23.252;2023-10-13T12:08:58;95571.13;;;36.65;13.08
9261;BME280;4667;42.726;23.252;2023-10-13T12:11:37;95551.41;;;37.08;12.82
9261;BME280;4667;42.726;23.252;2023-10-13T12:14:08;95582.69;;;36.84;12.91
9261;BME280;4667;42.726;23.252;2023-10-13T12:16:46;95545.34;;;36.52;13.75
9261;BME280;4667;42.726;23.252;2023-10-13T12:19:16;95583.09;;;36.44;13.26
9261;BME280;4667;42.726;23.252;2023-10-13T12:21:43;95587.53;;;36.28;13.29
9261;BME280;4667;42.726;23.252;2023-10-13T12:24:11;95574.53;;;36.32;13.69
9261;BME280;4667;42.726;23.252;2023-10-13T12:26:48;95574.66;;;36.66;13.35
9261;BME280;4667;42.726;23.252;2023-10-13T12:29:23;95577.28;;;37.11;12.41
9261;BME280;4667;42.726;23.252;2023-10-13T12:31:54;95571.94;;;37.61;12.61
9261;BME280;4667;42.726;23.252;2023-10-13T12:34:31;95565.69;;;37.88;12.82
9261;BME280;4667;42.726;23.252;2023-10-13T12:37:17;95561.47;;;37.53;13.29
9261;BME280;4667;42.726;23.252;2023-10-13T12:40:04;95570.88;;;37.55;12.55
9261;BME280;4667;42.726;23.252;2023-10-13T12:42:48;95574.75;;;37.27;13.05
9261;BME280;4667;42.726;23.252;2023-10-13T12:45:38;95571.47;;;36.67;12.92
9261;BME280;4667;42.726;23.252;2023-10-13T12:48:22;95564.59;;;36.49;13.49
9261;BME280;4667;42.726;23.252;2023-10-13T12:51:06;95567.63;;;36.61;13.06
9261;BME280;4667;42.726;23.252;2023-10-13T12:53:45;95569.69;;;36.88;12.93
9261;BME280;4667;42.726;23.252;2023-10-13T12:56:12;95562.06;;;37.06;13.27
9261;BME280;4667;42.726;23.252;2023-10-13T12:58:39;95547.34;;;37.20;13.50
9261;BME280;4667;42.726;23.252;2023-10-13T13:01:08;95558.44;;;37.13;13.22
9261;BME280;4667;42.726;23.252;2023-10-13T13:03:35;95554.41;;;36.87;13.12
9261;BME280;4667;42.726;23.252;2023-10-13T13:06:01;95557.47;;;36.96;12.40
9261;BME280;4667;42.726;23.252;2023-10-13T13:08:32;95554.56;;;37.41;12.95
9261;BME280;4667;42.726;23.252;2023-10-13T13:11:01;95554.34;;;37.25;12.45
9261;BME280;4667;42.726;23.252;2023-10-13T13:13:28;95556.94;;;37.05;12.69
9261;BME280;4667;42.726;23.252;2023-10-13T13:15:55;95545.81;;;36.81;13.46
9261;BME280;4667;42.726;23.252;2023-10-13T13:18:23;95549.63;;;36.53;13.11
9261;BME280;4667;42.726;23.252;2023-10-13T13:20:50;95550.56;;;36.36;13.06
9261;BME280;4667;42.726;23.252;2023-10-13T13:23:20;95550.13;;;36.44;13.49
9261;BME280;4667;42.726;23.252;2023-10-13T13:25:51;95548.59;;;36.36;13.79
9261;BME280;4667;42.726;23.252;2023-10-13T13:28:18;95555.69;;;36.34;14.07
9261;BME280;4667;42.726;23.252;2023-10-13T13:30:44;95547.44;;;36.34;13.94
9261;BME280;4667;42.726;23.252;2023-10-13T13:33:16;95547.75;;;35.98;13.56
9261;BME280;4667;42.726;23.252;2023-10-13T13:35:53;95552.16;;;35.85;13.59
9261;BME280;4667;42.726;23.252;2023-10-13T13:38:20;95539.81;;;36.11;13.63
9261;BME280;4667;42.726;23.252;2023-10-13T13:40:52;95545.44;;;36.38;13.38
9261;BME280;4667;42.726;23.252;2023-10-13T13:43:20;95543.91;;;36.37;13.73
9261;BME280;4667;42.726;23.252;2023-10-13T13:46:03;95546.91;;;36.53;14.01
9261;BME280;4667;42.726;23.252;2023-10-13T13:48:28;95548.91;;;36.49;13.73
9261;BME280;4667;42.726;23.252;2023-10-13T13:50:58;95542.19;;;36.54;13.67
9261;BME280;4667;42.726;23.252;2023-10-13T13:53:30;95542.59;;;36.52;13.05
9261;BME280;4667;42.726;23.252;2023-10-13T13:56:00;95545.22;;;36.63;13.31
9261;BME280;4667;42.726;23.252;2023-10-13T13:58:27;95538.03;;;36.35;13.43
9261;BME280;4667;42.726;23.252;2023-10-13T14:00:59;95545.31;;;36.11;13.89
9261;BME280;4667;42.726;23.252;2023-10-13T14:03:26;95538.00;;;35.93;13.65
9261;BME280;4667;42.726;23.252;2023-10-13T14:05:58;95538.19;;;35.61;14.09
9261;BME280;4667;42.726;23.252;2023-10-13T14:08:25;95544.97;;;35.39;14.35
9261;BME280;4667;42.726;23.252;2023-10-13T14:10:52;95553.25;;;35.28;14.21
9261;BME280;4667;42.726;23.252;2023-10-13T14:13:36;95542.75;;;35.12;14.13
9261;BME280;4667;42.726;23.252;2023-10-13T14:16:15;95554.88;;;35.19;14.12
9261;BME280;4667;42.726;23.252;2023-10-13T14:18:44;95541.22;;;35.04;14.28
9261;BME280;4667;42.726;23.252;2023-10-13T14:21:14;95538.56;;;34.72;14.31
9261;BME280;4667;42.726;23.252;2023-10-13T14:23:44;95533.91;;;34.58;14.41
9261;BME280;4667;42.726;23.252;2023-10-13T14:26:12;95534.75;;;33.95;15.03
9261;BME280;4667;42.726;23.252;2023-10-13T14:28:39;95541.72;;;33.49;15.32
9261;BME280;4667;42.726;23.252;2023-10-13T14:31:17;95546.75;;;32.60;16.04
9261;BME280;4667;42.726;23.252;2023-10-13T14:33:45;95542.66;;;32.29;16.89
9261;BME280;4667;42.726;23.252;2023-10-13T14:36:14;95545.72;;;31.76;17.55
9261;BME280;4667;42.726;23.252;2023-10-13T14:38:46;95549.00;;;31.18;17.78
9261;BME280;4667;42.726;23.252;2023-10-13T14:41:15;95543.59;;;30.88;18.88
9261;BME280;4667;42.726;23.252;2023-10-13T14:43:42;95549.72;;;30.54;18.82
9261;BME280;4667;42.726;23.252;2023-10-13T14:46:13;95549.69;;;30.01;19.63